LFRM

Le Mans-Arnage Airport

Le Mans/Arnage, France
TAF LFRM 161700Z 1618/1718 31006KT CAVOK PROB30 TEMPO 1618/1622 SHRA SCT050CB
Issued Valid From Valid To
Jul-16 @ 17:00 UTC
(3 hours ago)
Jul-16 @ 18:00 UTC
(2 hours ago)
Jul-17 @ 18:00 UTC
(in 22 hours)
Jul-16 @ 18:00 to Jul-17 @ 18:00
TAF LFRM 161700Z 1618/1718 31006KT CAVOK
Wind Visibility Clouds Conditions
310° at 6 knots 10,000+ meters
  • No significant clouds
Temporary  (Probability 30%) Jul-16 @ 18:00 to Jul-16 @ 22:00
PROB30 TEMPO 1618/1622 SHRA SCT050CB
Clouds Conditions
  • Scattered at 5,000' AGL
  • Rain
TAF LFRM 161700Z 1618/1718 31006KT CAVOK PROB30 TEMPO 1618/1622 SHRA SCT050CB
Issued Jul-16 @ 17:00 UTC
(3 hours ago)
Valid From Jul-16 @ 18:00 UTC
(2 hours ago)
Valid To Jul-17 @ 18:00 UTC
(in 22 hours)
Jul-16 @ 18:00 - Jul-17 @ 18:00
Wind Visibility
310° at 6 knots 10,000+ meters
Clouds
  • No significant clouds
Conditions
Probability 30% Temporary Jul-16 @ 18:00 - Jul-16 @ 22:00
Clouds
  • Scattered at 5,000' AGL
Conditions
  • Rain